メインページ
METAR-TAF:

METAR-TAF

空港 :

クウェート, クウェート

クウェート国際空港

緯度: 29-13N, 経度: 047-59E, 海抜: 55m

現時点の気象観測

当レポートは5分前の05:00(UTC)に作成
無風
気温 27°C
湿度 28%
気圧 1014 hPa
視程: 6000m
晴天

METAR: OKBK 210500Z 00000KT 6000 SKC 27/07 Q1014 NOSIG

時間: 08:05 (05:05 UTC)

予報

当レポートは6時間20分前の22:45(UTC)に作成
予報は21日の 00時(UTC)から 22日の 06時(UTC)まで有効
変向風 3kt
視程: 7000m
晴天
21日の 00時(UTC)から 21日の 06時(UTC)まで一時的に
視程: 4000m
煙霧

TAF: OKBK 202245Z 2100/2206 VRB03KT 7000 SKC TEMPO 2100/2106 4000 HZ

4,000以上の空港の気象観測と天気予報(METAR報とTAF報)

利用可能な観測所は地図上に黄色い丸と赤い丸で示す。

丸の上にカーソルを重ねると観測所名を参照できる。

次にクリックすると気象観測と天気予報を参照できる。

マップの切り替え:黒色「×」印の緑ボタンをクリックして拡大、「-」印の緑ボタンをクリックして縮小、緑色の三角印をクリックして隣りの地図に切り替え


METAR-TAF: